Wilson, KS (67490)

1:53 PM CST on February 08, 2016 (GMT -0600)
Wilson | | Change Station
CLOSE
Current Station
Personal Weather Station
Location: Wilson, KS
Elevation: 1689 ft
Nearby Weather Stations
Active Advisory: Wind Advisory

Elev 1689 ft 38.82 °N, 98.47 °W | Updated 6 minutes ago

Clear
Clear
39.3 °F
Feels Like 31 °F
N
14.2
Wind Variable Wind from NW
Gusts 14.2 mph

Today
High -- | Low -- °F
--% Chance of Precip.
Yesterday
High -- | Low -- °F
Precip. -- in
Pressure 30.32 in
Visibility 10.0 miles
Clouds Clear
Windchill 31 °F
Dew Point Not available.
Humidity Not available.
Rainfall 0.00 in
Snow Depth Not available.
7:33 AM 6:03 PM
New Moon, 0% visible
METAR KRSL 081853Z AUTO 33030G37KT 10SM CLR 03/M08 A3027 RMK AO2 PK WND 32038/1827 SLP267 T00331083
Pressure 30.32 in
Visibility 10.0 miles
Clouds Clear
Windchill 31 °F
Dew Point Not available.
Humidity Not available.
Rainfall 0.00 in
Snow Depth Not available.
7:33 AM 6:03 PM
New Moon, 0% visible
METAR KRSL 081853Z AUTO 33030G37KT 10SM CLR 03/M08 A3027 RMK AO2 PK WND 32038/1827 SLP267 T00331083

10-Day Weather Forecast

Almanac

Astronomy

Feb. 08, 2016 Rise Set
Actual Time
Civil Twilight
Nautical Twilight
Astronomical Twilight
Moon
Length of Visible Light
Length of Day
Tomorrow will be .
, % of the Moon is Illuminated

Today's Extremes

State Highs State Lows

Community

WunderPhotos

Upload Photos

1,891,499 photos uploaded!

WunderBlog® & News

Nearby

Air Quality

  Air Quality AQ Index Pollutant
Not available.

Snow Depth

Station Depth Elevation

Earthquake Activity

City Distance Mag. Time & Date
Minimum magnitude displayed is 2.5.

Coastal Water Temperatures

Place Temperature

Stations

Nearby Weather Stations

Station Location Temp. Windchill Dew Point Humidity Wind Precip. Elev Updated Type
                   

Watches & Warnings

Wind Advisory
Issued: 3:14 AM CST Feb. 8, 2016 – National Weather Service

... Wind Advisory remains in effect from 9 am this morning to 6 PM
CST this evening...

* winds... northwest 25 to 30 mph with gusts up to 45 mph.

* Timing... strong winds will begin to develop during the mid-
morning hours and continue through the early evening hours.

Precautionary/preparedness actions...

A Wind Advisory means that sustained winds of at least 30 mph
and/or wind gusts over 45 mph are expected. Winds this strong
can make driving difficult... especially for high profile
vehicles. Use extra caution.



Ketcham